Observations for MANCHESTER INTL, United Kingdom (EGCC)

EGCC 201950Z AUTO 19006KT 130V230 9999 -RA BKN021 10/06 Q1017 NOSIG 
EGCC 201920Z AUTO 20006KT 150V220 9999 OVC021 10/06 Q1017 TEMPO BKN014  
EGCC 201850Z AUTO 19007KT 9999 BKN021 10/06 Q1016 TEMPO BKN014  
EGCC 201820Z AUTO 19007KT 160V220 9999 BKN021 10/06 Q1016 TEMPO BKN014  
EGCC 201750Z AUTO 19006KT 140V220 9999 OVC020 10/06 Q1016 TEMPO BKN014  
EGCC 201720Z AUTO 19006KT 140V220 9999 OVC020 10/06 Q1015 TEMPO BKN014  
EGCC 201650Z AUTO 18005KT 140V220 9999 BKN021 OVC039 10/06 Q1015 TEMPO BKN014   
EGCC 201620Z 18006KT 130V210 9999 BKN024 10/06 Q1015 NOSIG  
EGCC 201550Z 17006KT 120V220 9999 -RA FEW023 10/07 Q1016 NOSIG  
EGCC 201520Z 18005KT 140V210 9999 -RA FEW027 09/07 Q1016 NOSIG  
EGCC 201450Z 19006KT 150V220 9000 -RA FEW021 10/07 Q1016 TEMPO RA BKN014
EGCC 201420Z 20007KT 150V230 8000 -RA SCT028TCU 10/06 Q1015 TEMPO RA BKN014 
EGCC 201350Z AUTO 21009KT 150V230 9999 -RA BKN026/// //////TCU 11/06 Q1015 TEMPO RA BKN014  
EGCC 201320Z AUTO 20009KT 9999 BKN029/// //////TCU 11/06 Q1015 TEMPO RA BKN014  
EGCC 201250Z AUTO 20007KT 130V240 9999 SCT022/// BKN032/// //////TCU 11/06 Q1015 TEMPO RA BKN014
EGCC 201220Z AUTO 19005KT 150V230 9999 BKN022/// OVC034/// //////TCU 10/06 Q1015 NOSIG  
EGCC 201150Z AUTO 18007KT 140V230 9999 FEW022 BKN026 BKN031 10/06 Q1015 NOSIG   
EGCC 201120Z AUTO 18005KT 110V230 9999 BKN027 10/06 Q1015 NOSIG 
EGCC 201050Z AUTO 17005KT 120V220 9999 BKN024 OVC030 09/05 Q1015 NOSIG  
EGCC 201020Z AUTO 18005KT 130V220 9999 BKN021 OVC028 09/05 Q1015 NOSIG  
EGCC 200950Z AUTO 18007KT 130V220 9999 SCT022 BKN028 09/05 Q1015 NOSIG  
EGCC 200920Z AUTO 18007KT 140V210 9999 SCT030 09/05 Q1015 NOSIG 
EGCC 200850Z AUTO 18006KT 130V220 9999 SCT024 BKN029 08/05 Q1014 NOSIG  
EGCC 200820Z AUTO 18006KT 130V210 9999 -RA BKN023 08/05 Q1014 NOSIG 
EGCC 200750Z AUTO 19006KT 140V220 9999 -RA NCD 08/05 Q1014 NOSIG
EGCC 200720Z AUTO 19007KT 150V230 9999 NCD 08/05 Q1013 NOSIG
EGCC 200650Z AUTO 18006KT 130V220 9999 -RA NCD 08/05 Q1013 NOSIG
EGCC 200620Z AUTO 18006KT 140V220 9999 -RA BKN022 08/05 Q1013 NOSIG 
EGCC 200550Z AUTO 19008KT 150V220 9999 SCT023 SCT029 08/05 Q1013 NOSIG  
EGCC 200520Z AUTO 19007KT 140V230 9999 FEW024 08/05 Q1013 NOSIG 
EGCC 200450Z AUTO 19007KT 150V230 9999 BKN021 BKN028 08/05 Q1013 NOSIG  
EGCC 200420Z AUTO 19007KT 160V230 9999 BKN022 08/05 Q1013 NOSIG 
EGCC 200350Z AUTO 18006KT 130V230 9999 OVC020 08/05 Q1013 NOSIG 
EGCC 200320Z AUTO 19008KT 150V220 9999 OVC020 08/05 Q1013 NOSIG 
EGCC 200250Z AUTO 18007KT 140V230 9999 BKN019 07/04 Q1013 NOSIG 
EGCC 200220Z AUTO 18007KT 150V210 9999 -RA BKN021 07/05 Q1013 NOSIG 
EGCC 200150Z AUTO 18007KT 140V220 9999 -RA BKN021 07/04 Q1013 NOSIG 
EGCC 200120Z AUTO 19008KT 140V220 9999 -RA FEW026 07/04 Q1013 NOSIG 
EGCC 200050Z AUTO 19007KT 140V220 9999 -RA //////TCU 07/04 Q1013 NOSIG  
EGCC 200020Z AUTO 19009KT 140V220 9999 -RA //////TCU 07/04 Q1013 NOSIG  
EGCC 192350Z AUTO 18008KT 140V220 9999 -RA //////TCU 07/04 Q1013 TEMPO 7000 RA BKN014   
EGCC 192320Z AUTO 19008KT 150V220 9999 -RA NCD 07/04 Q1013 NOSIG
EGCC 192250Z AUTO 18007KT 150V230 9999 -RA SCT029 07/04 Q1014 NOSIG 
EGCC 192220Z AUTO 18007KT 150V210 9999 -RA BKN029 07/04 Q1014 TEMPO 7000 RA BKN014  
EGCC 192150Z AUTO 19007KT 150V220 9999 -RA BKN030 07/04 Q1014 TEMPO 7000 BKN014 
EGCC 192120Z AUTO 18007KT 140V220 9999 -RA BKN029 BKN047 07/04 Q1014 TEMPO 7000 RA BKN014   
EGCC 192050Z AUTO 18006KT 120V230 9999 -RA BKN029 08/04 Q1014 TEMPO 7000 RA BKN014  
EGCC 192020Z AUTO 18005KT 120V220 9999 -RA OVC029 08/04 Q1014 TEMPO 7000 RA BKN014  
EGCC 191950Z AUTO 18006KT 130V240 9999 -RA BKN031 08/03 Q1014 TEMPO 7000 RA BKN014  
EGCC 191920Z AUTO 18005KT 130V220 9999 BKN030 08/03 Q1014 NOSIG